Time;durP1;ratioP1;P1;durP2;ratioP2;P2;SDS_P1;SDS_P2;PMS_P1;PMS_P2;Temp;Humidity;BMP_temperature;BMP_pressure;BME280_temperature;BME280_humidity;BME280_pressure;Samples;Min_cycle;Max_cycle;Signal;HPM_P1;HPM_P2
2022/07/06 00:02:29;;;;;;;3.33;2.30;;;;;;;17.89;58.08;100917.84;5110280;28;20113;-57
2022/07/06 00:05:15;;;;;;;6.05;2.85;;;;;;;17.88;58.06;100913.47;5109960;28;20051;-57
2022/07/06 00:08:00;;;;;;;5.38;2.53;;;;;;;17.88;58.03;100910.88;5109622;28;20402;-58
2022/07/06 00:10:43;;;;;;;3.88;2.05;;;;;;;17.85;58.04;100916.09;5109528;28;20478;-57
2022/07/06 00:13:27;;;;;;;4.93;2.88;;;;;;;17.85;57.98;100909.09;5110303;28;20054;-57
2022/07/06 00:16:11;;;;;;;4.63;2.22;;;;;;;17.85;58.06;100910.84;5109456;28;20070;-57
2022/07/06 00:18:56;;;;;;;4.20;2.25;;;;;;;17.84;58.25;100915.22;5110514;28;20043;-57
2022/07/06 00:21:42;;;;;;;3.17;2.38;;;;;;;17.83;58.25;100908.22;5109571;28;20051;-58
2022/07/06 00:24:26;;;;;;;4.10;2.47;;;;;;;17.83;58.13;100904.75;5095383;28;20043;-57
2022/07/06 00:27:10;;;;;;;3.67;2.05;;;;;;;17.82;58.19;100914.38;5096323;28;20469;-57
2022/07/06 00:29:54;;;;;;;3.38;2.25;;;;;;;17.81;58.13;100910.00;5096625;28;20063;-59
2022/07/06 00:32:38;;;;;;;4.15;2.47;;;;;;;17.80;58.15;100909.09;5096139;28;20086;-59
2022/07/06 00:35:25;;;;;;;5.75;2.10;;;;;;;17.79;58.16;100907.34;5096309;28;20055;-57
2022/07/06 00:38:09;;;;;;;4.07;2.58;;;;;;;17.79;58.21;100903.88;5096457;28;20612;-58
2022/07/06 00:40:53;;;;;;;3.05;2.53;;;;;;;17.79;58.23;100906.50;5096146;28;20529;-57
2022/07/06 00:43:50;;;;;;;4.72;2.30;;;;;;;17.76;58.09;100909.13;5095182;28;20128;-58
2022/07/06 00:46:34;;;;;;;4.45;2.80;;;;;;;17.75;58.32;100908.22;5094763;28;20089;-57
2022/07/06 00:52:21;;;;;;;5.20;2.63;;;;;;;17.74;58.25;100905.63;5095585;28;20433;-59
2022/07/06 00:55:06;;;;;;;4.90;2.58;;;;;;;17.73;58.13;100902.13;5095148;28;20044;-59
2022/07/06 00:57:51;;;;;;;5.63;2.65;;;;;;;17.72;58.28;100895.13;5095990;28;20063;-59
2022/07/06 01:00:35;;;;;;;4.63;2.67;;;;;;;17.71;58.15;100903.88;5096165;28;20474;-59
2022/07/06 01:03:19;;;;;;;3.85;2.28;;;;;;;17.70;57.92;100899.50;5095536;28;20042;-59
2022/07/06 01:06:04;;;;;;;4.43;2.50;;;;;;;17.68;58.06;100893.38;5095483;28;20070;-59
2022/07/06 01:08:48;;;;;;;4.38;2.97;;;;;;;17.68;58.13;100895.09;5095167;28;20050;-59
2022/07/06 01:11:32;;;;;;;4.90;2.40;;;;;;;17.67;58.11;100904.75;5095404;28;20075;-59
2022/07/06 01:14:17;;;;;;;5.55;2.75;;;;;;;17.66;58.31;100900.38;5095311;28;20042;-59
2022/07/06 01:17:02;;;;;;;5.88;3.15;;;;;;;17.65;58.11;100906.47;5094689;28;20042;-58
2022/07/06 01:19:48;;;;;;;4.88;2.58;;;;;;;17.64;58.49;100905.63;5094705;28;20177;-59
2022/07/06 01:22:32;;;;;;;3.42;2.63;;;;;;;17.62;58.05;100901.22;5094455;28;20046;-59
2022/07/06 01:25:18;;;;;;;5.45;2.38;;;;;;;17.62;58.01;100911.72;5095102;28;20139;-59
2022/07/06 01:28:03;;;;;;;3.90;2.75;;;;;;;17.60;58.15;100908.22;5095583;28;20134;-59
2022/07/06 01:30:49;;;;;;;5.43;2.70;;;;;;;17.59;58.23;100911.75;5095347;28;20054;-59
2022/07/06 01:33:33;;;;;;;5.43;2.85;;;;;;;17.57;58.31;100903.84;5095057;28;20055;-59
2022/07/06 01:36:17;;;;;;;3.40;2.17;;;;;;;17.56;58.19;100907.34;5094385;28;20051;-59
2022/07/06 01:39:01;;;;;;;4.38;2.65;;;;;;;17.56;57.91;100901.25;5095065;28;20070;-59
2022/07/06 01:41:45;;;;;;;4.65;2.70;;;;;;;17.54;58.43;100900.38;5094551;28;20113;-59
2022/07/06 01:44:29;;;;;;;5.40;3.00;;;;;;;17.53;58.13;100902.09;5094586;28;20139;-59
2022/07/06 01:47:13;;;;;;;4.20;2.55;;;;;;;17.52;58.05;100902.97;5094902;28;20093;-58
2022/07/06 01:50:06;;;;;;;3.55;2.60;;;;;;;17.49;58.04;100895.97;5094647;28;20046;-58
2022/07/06 01:52:51;;;;;;;2.35;2.05;;;;;;;17.46;58.28;100898.59;5094665;28;20513;-57
2022/07/06 01:55:34;;;;;;;4.90;3.00;;;;;;;17.46;58.08;100895.13;5094200;28;20051;-59
2022/07/06 01:58:18;;;;;;;5.20;3.20;;;;;;;17.45;58.08;100893.38;5094697;28;20522;-58
2022/07/06 02:01:10;;;;;;;4.53;3.13;;;;;;;17.44;57.98;100896.84;5094173;28;20514;-59
2022/07/06 02:03:54;;;;;;;3.60;2.63;;;;;;;17.43;58.12;100892.50;5094807;28;20101;-59
2022/07/06 02:06:43;;;;;;;4.28;2.78;;;;;;;17.43;58.13;100888.13;5094468;28;20047;-59
2022/07/06 02:09:27;;;;;;;6.15;2.65;;;;;;;17.42;58.21;100893.34;5094352;28;20418;-56
2022/07/06 02:12:11;;;;;;;5.20;2.40;;;;;;;17.42;58.07;100895.97;5093903;28;20097;-58
2022/07/06 02:14:55;;;;;;;6.03;2.50;;;;;;;17.40;58.03;100901.22;5093484;28;20109;-58
2022/07/06 02:17:39;;;;;;;5.35;2.97;;;;;;;17.38;58.06;100900.34;5094848;28;20051;-58
2022/07/06 02:20:23;;;;;;;6.07;2.40;;;;;;;17.38;58.07;100891.59;5093794;28;20066;-59
2022/07/06 02:23:07;;;;;;;3.67;2.67;;;;;;;17.37;58.21;100895.09;5094261;28;20097;-58
2022/07/06 02:25:52;;;;;;;6.00;3.00;;;;;;;17.36;58.18;100889.00;5094108;28;20089;-59
2022/07/06 02:28:36;;;;;;;;;;;;;;;17.33;58.15;100888.97;5094799;28;20130;-59
2022/07/06 02:31:22;;;;;;;4.50;2.30;;;;;;;17.32;58.30;100884.59;5093584;28;20485;-59
2022/07/06 02:34:06;;;;;;;3.53;2.38;;;;;;;17.32;57.68;100880.25;5093935;28;20047;-59
2022/07/06 02:36:50;;;;;;;6.47;2.80;;;;;;;17.31;58.15;100875.88;5094394;28;20059;-59
2022/07/06 02:39:34;;;;;;;4.80;2.47;;;;;;;17.30;58.17;100874.13;5092760;28;20066;-59
2022/07/06 02:42:18;;;;;;;6.93;3.25;;;;;;;17.28;58.18;100875.03;5093735;28;20097;-59
2022/07/06 02:45:03;;;;;;;4.93;2.55;;;;;;;17.28;58.19;100878.50;5093778;28;20055;-59
2022/07/06 02:47:47;;;;;;;6.38;3.15;;;;;;;17.27;58.19;100878.50;5092656;28;20067;-57
2022/07/06 02:50:31;;;;;;;4.30;2.70;;;;;;;17.25;58.14;100875.88;5092784;28;20130;-57
2022/07/06 02:53:17;;;;;;;;;;;;;;;17.23;58.12;100881.97;5094202;28;20485;-57
2022/07/06 02:56:01;;;;;;;3.33;2.97;;;;;;;17.23;58.25;100885.47;5093835;28;19918;-57
2022/07/06 02:58:45;;;;;;;4.03;2.75;;;;;;;17.23;58.35;100887.22;5093925;28;20419;-57
2022/07/06 03:01:29;;;;;;;3.78;2.80;;;;;;;17.22;58.40;100882.84;5092898;28;20085;-58
2022/07/06 03:04:13;;;;;;;3.00;2.70;;;;;;;17.20;58.18;100881.09;5093436;28;20097;-59
2022/07/06 03:06:57;;;;;;;4.57;2.78;;;;;;;17.21;58.20;100881.97;5093209;28;20047;-59
2022/07/06 03:09:40;;;;;;;3.75;2.90;;;;;;;17.19;58.25;100886.34;5093497;28;20093;-59
2022/07/06 03:12:24;;;;;;;3.05;2.72;;;;;;;17.18;58.37;100887.22;5092840;28;20415;-59
2022/07/06 03:15:09;;;;;;;3.92;2.55;;;;;;;17.17;58.33;100894.19;5093784;28;20094;-59
2022/07/06 03:17:53;;;;;;;5.50;3.20;;;;;;;17.16;58.26;100892.44;5092676;28;20100;-59
2022/07/06 03:20:37;;;;;;;4.15;2.33;;;;;;;17.15;58.25;100889.81;5092662;28;20089;-58
2022/07/06 03:23:21;;;;;;;3.83;2.78;;;;;;;17.15;58.28;100887.22;5093740;28;20062;-59
2022/07/06 03:26:05;;;;;;;4.20;2.88;;;;;;;17.16;58.45;100886.34;5092958;28;20514;-59
2022/07/06 03:28:49;;;;;;;4.28;3.03;;;;;;;17.15;58.23;100895.06;5093627;28;20098;-59
2022/07/06 03:31:33;;;;;;;3.00;2.60;;;;;;;17.13;58.26;100902.03;5092067;28;20135;-59
2022/07/06 03:34:16;;;;;;;4.40;2.65;;;;;;;17.12;58.31;100895.94;5093585;28;20043;-59
2022/07/06 03:37:00;;;;;;;4.53;2.80;;;;;;;17.12;58.23;100901.19;5093120;28;20506;-59
2022/07/06 03:39:44;;;;;;;4.28;2.88;;;;;;;17.11;58.25;100901.16;5093200;28;20124;-58
2022/07/06 03:42:28;;;;;;;4.00;3.08;;;;;;;17.11;58.24;100896.81;5093372;28;20113;-59
2022/07/06 03:45:15;;;;;;;4.05;2.67;;;;;;;17.10;58.58;100896.78;5093051;28;20043;-59
2022/07/06 03:47:59;;;;;;;7.53;3.28;;;;;;;17.09;58.33;100892.41;5093212;28;20101;-58
2022/07/06 03:50:43;;;;;;;5.80;3.28;;;;;;;17.09;58.28;100902.91;5093406;28;20047;-59
2022/07/06 03:53:27;;;;;;;5.03;3.13;;;;;;;17.08;58.23;100907.28;5092324;28;20109;-59
2022/07/06 03:56:29;;;;;;;4.28;3.22;;;;;;;17.07;58.45;100902.91;5092936;28;20044;-59
2022/07/06 03:59:14;;;;;;;3.40;2.53;;;;;;;17.07;58.38;100907.25;5096216;28;20051;-59
2022/07/06 04:01:57;;;;;;;;;;;;;;;17.04;58.29;100908.13;5096168;28;20556;-57
2022/07/06 04:04:41;;;;;;;6.43;3.35;;;;;;;17.02;58.52;100905.50;5096840;28;19957;-59
2022/07/06 04:07:25;;;;;;;4.65;3.03;;;;;;;17.03;58.65;100909.88;5097068;28;20131;-59
2022/07/06 04:10:10;;;;;;;4.10;3.00;;;;;;;17.01;58.31;100914.22;5095754;28;20130;-57
2022/07/06 04:12:54;;;;;;;5.88;2.92;;;;;;;17.02;58.45;100910.75;5096397;28;20110;-57
2022/07/06 04:15:39;;;;;;;5.22;3.30;;;;;;;17.01;58.33;100908.09;5096924;28;20042;-57
2022/07/06 04:18:23;;;;;;;5.25;2.97;;;;;;;17.00;58.57;100916.84;5096535;28;20513;-57
2022/07/06 04:21:07;;;;;;;5.35;3.00;;;;;;;16.99;58.36;100915.97;5096379;28;20082;-58
2022/07/06 04:23:51;;;;;;;5.97;3.00;;;;;;;16.98;58.42;100919.47;5096651;28;20497;-59
2022/07/06 04:26:35;;;;;;;6.53;3.50;;;;;;;16.99;58.55;100923.81;5096566;28;20046;-59
2022/07/06 04:29:18;;;;;;;7.43;3.50;;;;;;;16.99;58.72;100925.56;5096640;28;20097;-59
2022/07/06 04:32:03;;;;;;;6.10;3.50;;;;;;;16.97;58.54;100930.78;5096268;28;20470;-59
2022/07/06 04:34:47;;;;;;;5.18;3.55;;;;;;;16.97;58.42;100930.78;5096152;28;20043;-58
2022/07/06 04:37:31;;;;;;;4.00;3.28;;;;;;;16.96;58.47;100920.34;5096246;28;20051;-59
2022/07/06 04:40:15;;;;;;;;;;;;;;;16.93;58.33;100928.13;5096895;28;20133;-59
2022/07/06 04:42:59;;;;;;;5.95;3.22;;;;;;;16.92;58.49;100931.63;5096028;28;19962;-59
2022/07/06 04:45:43;;;;;;;5.57;3.53;;;;;;;16.91;58.62;100930.72;5095917;28;20055;-58
2022/07/06 04:48:27;;;;;;;5.03;3.40;;;;;;;16.91;58.57;100922.88;5095620;28;20098;-58
2022/07/06 04:51:12;;;;;;;4.72;2.95;;;;;;;16.92;58.31;100919.38;5095453;28;20112;-60
2022/07/06 04:53:56;;;;;;;6.13;3.08;;;;;;;16.89;58.55;100917.66;5095924;28;20123;-59
2022/07/06 04:56:40;;;;;;;4.93;3.63;;;;;;;16.88;58.33;100909.78;5096285;28;20586;-59
2022/07/06 04:59:24;;;;;;;5.20;3.33;;;;;;;16.87;58.52;100913.28;5094768;28;20047;-58
2022/07/06 05:02:08;;;;;;;4.75;3.03;;;;;;;16.88;58.60;100910.66;5096110;28;20043;-58
2022/07/06 05:04:55;;;;;;;7.32;3.40;;;;;;;16.88;58.43;100910.66;5094547;28;20097;-57
2022/07/06 05:07:39;;;;;;;3.30;2.55;;;;;;;16.88;58.60;100909.78;5094620;28;20114;-57
2022/07/06 05:10:23;;;;;;;4.82;3.10;;;;;;;16.88;58.75;100910.66;5094482;28;20419;-57
2022/07/06 05:13:08;;;;;;;4.63;3.13;;;;;;;16.89;58.59;100917.66;5095973;28;20130;-59
2022/07/06 05:15:52;;;;;;;;;;;;;;;16.87;58.77;100916.75;5095691;28;20086;-59
2022/07/06 05:18:36;;;;;;;6.53;3.13;;;;;;;16.87;58.78;100922.00;5095356;28;19927;-58
2022/07/06 05:21:19;;;;;;;5.43;3.47;;;;;;;16.88;58.79;100928.13;5094514;28;20092;-58
2022/07/06 05:24:04;;;;;;;4.53;3.17;;;;;;;16.89;58.85;100922.03;5095612;28;20093;-59
2022/07/06 05:26:48;;;;;;;;;;;;;;;16.86;58.79;100928.09;5095025;28;20505;-59
2022/07/06 05:29:34;;;;;;;7.65;4.28;;;;;;;16.85;59.19;100933.34;5095243;28;19960;-59
2022/07/06 05:32:18;;;;;;;7.93;4.03;;;;;;;16.85;58.84;100930.72;5094291;28;20066;-59
2022/07/06 05:35:02;;;;;;;5.10;4.03;;;;;;;16.86;59.00;100932.47;5095407;28;20206;-59
2022/07/06 05:37:46;;;;;;;;;;;;;;;16.86;58.93;100932.47;5095227;28;20047;-58
2022/07/06 05:40:30;;;;;;;5.53;4.30;;;;;;;16.86;59.04;100935.09;5094770;28;19965;-58
2022/07/06 05:43:14;;;;;;;7.60;3.78;;;;;;;16.86;59.33;100935.09;5093711;28;20042;-59
2022/07/06 05:45:58;;;;;;;4.63;4.07;;;;;;;16.87;59.22;100936.84;5094737;28;20423;-59
2022/07/06 05:51:47;;;;;;;9.57;4.05;;;;;;;16.89;59.34;100937.72;5094782;28;20047;-59
2022/07/06 05:54:31;;;;;;;6.88;4.03;;;;;;;16.89;59.19;100940.34;5094160;28;20046;-59
2022/07/06 05:57:17;;;;;;;5.82;4.20;;;;;;;16.88;59.28;100939.47;5094500;28;20420;-59
2022/07/06 06:00:07;;;;;;;7.57;4.15;;;;;;;16.89;59.28;100945.59;5094893;28;20185;-59
2022/07/06 06:02:52;;;;;;;7.15;4.07;;;;;;;16.89;59.30;100942.97;5093568;28;20181;-58
2022/07/06 06:05:36;;;;;;;5.07;3.95;;;;;;;16.89;59.33;100949.06;5093639;28;20124;-57
2022/07/06 06:08:20;;;;;;;7.20;4.30;;;;;;;16.89;59.27;100950.81;5094031;28;20187;-59
2022/07/06 06:11:07;;;;;;;8.43;3.80;;;;;;;16.88;59.33;100944.69;5094248;28;20082;-59
2022/07/06 06:13:51;;;;;;;4.38;3.53;;;;;;;16.90;59.35;100947.31;5094367;28;20098;-59
2022/07/06 06:16:35;;;;;;;6.35;4.03;;;;;;;16.90;59.25;100944.69;5093914;28;20047;-58
2022/07/06 06:19:19;;;;;;;7.22;4.45;;;;;;;16.89;59.29;100950.81;5094395;28;20067;-57
2022/07/06 06:22:03;;;;;;;6.20;3.70;;;;;;;16.88;59.28;100944.69;5093597;28;20097;-57
2022/07/06 06:24:48;;;;;;;4.78;3.92;;;;;;;16.88;59.42;100951.69;5094070;28;20101;-59
2022/07/06 06:27:32;;;;;;;8.07;4.55;;;;;;;16.89;59.26;100946.44;5093946;28;20071;-59
2022/07/06 06:30:16;;;;;;;6.57;3.47;;;;;;;16.88;59.56;100936.84;5094512;28;20067;-57
2022/07/06 06:33:16;;;;;;;5.18;3.58;;;;;;;16.89;59.58;100940.34;5093802;28;20098;-57
2022/07/06 06:36:00;;;;;;;8.02;3.40;;;;;;;16.90;59.48;100947.31;5093334;28;20097;-59
2022/07/06 06:38:44;;;;;;;6.72;3.72;;;;;;;16.90;59.50;100952.53;5094395;28;20055;-59
2022/07/06 06:41:29;;;;;;;6.32;3.83;;;;;;;16.90;59.53;100949.91;5093831;28;20047;-59
2022/07/06 06:44:14;;;;;;;5.45;3.33;;;;;;;16.90;59.34;100952.53;5093412;28;20067;-59
2022/07/06 06:46:58;;;;;;;6.10;3.53;;;;;;;16.89;59.57;100951.69;5093410;28;20135;-59
2022/07/06 06:49:42;;;;;;;5.35;3.78;;;;;;;16.88;59.43;100949.94;5094015;28;20059;-59
2022/07/06 06:52:25;;;;;;;5.40;3.05;;;;;;;16.90;59.46;100960.38;5093683;28;20085;-58
2022/07/06 06:55:09;;;;;;;6.15;3.38;;;;;;;16.88;59.68;100960.41;5093756;28;20590;-59
2022/07/06 06:57:53;;;;;;;;;;;;;;;16.87;59.52;100947.31;5093919;28;20043;-57
2022/07/06 07:00:38;;;;;;;6.67;2.70;;;;;;;16.86;59.54;100953.41;5093621;28;19993;-57
2022/07/06 07:03:22;;;;;;;5.10;3.15;;;;;;;16.86;59.77;100951.66;5093634;28;20150;-57
2022/07/06 07:06:06;;;;;;;4.28;3.00;;;;;;;16.87;59.63;100949.94;5093300;28;20411;-57
2022/07/06 07:08:50;;;;;;;4.72;3.08;;;;;;;16.87;59.76;100955.16;5093385;28;20074;-57
2022/07/06 07:11:34;;;;;;;5.53;2.67;;;;;;;16.84;59.81;100956.00;5092974;28;20073;-57
2022/07/06 07:14:18;;;;;;;5.43;2.97;;;;;;;16.86;59.76;100959.50;5093578;28;20043;-57
2022/07/06 07:17:02;;;;;;;3.00;2.55;;;;;;;16.86;59.77;100962.13;5092566;28;20119;-57
2022/07/06 07:19:46;;;;;;;;;;;;;;;16.82;59.71;100962.97;5093402;28;20483;-57
2022/07/06 07:22:30;;;;;;;7.53;2.80;;;;;;;16.84;59.80;100957.78;5093356;28;20314;-57
2022/07/06 07:25:14;;;;;;;14.85;4.22;;;;;;;16.83;59.59;100962.09;5093532;28;20411;-58
2022/07/06 07:27:58;;;;;;;5.95;3.00;;;;;;;16.83;59.93;100958.63;5092967;28;20051;-60
2022/07/06 07:30:42;;;;;;;16.45;3.85;;;;;;;16.84;59.88;100957.78;5093142;28;20102;-57
2022/07/06 07:33:26;;;;;;;16.83;4.63;;;;;;;16.86;59.73;100958.66;5095420;28;20043;-57
2022/07/06 07:36:10;;;;;;;15.77;4.10;;;;;;;16.85;60.09;100965.63;5095962;28;20043;-57
2022/07/06 07:38:54;;;;;;;15.60;4.35;;;;;;;16.88;59.72;100962.16;5097226;28;20101;-60
2022/07/06 07:41:37;;;;;;;13.10;4.53;;;;;;;16.85;59.79;100968.22;5097286;28;20051;-57
2022/07/06 07:44:21;;;;;;;18.17;4.40;;;;;;;16.86;59.79;100964.75;5096930;28;20553;-57
2022/07/06 07:47:05;;;;;;;44.38;8.23;;;;;;;16.83;59.72;100961.25;5097531;28;20063;-58
2022/07/06 07:49:49;;;;;;;21.52;4.43;;;;;;;16.86;59.98;100951.66;5097131;28;20051;-57
2022/07/06 07:52:33;;;;;;;23.17;4.55;;;;;;;16.83;59.55;100951.63;5095794;28;20093;-57
2022/07/06 07:55:18;;;;;;;22.00;5.00;;;;;;;16.83;59.75;100945.53;5096858;28;20473;-57
2022/07/06 07:58:02;;;;;;;46.47;7.10;;;;;;;16.81;59.29;100955.13;5096356;28;20127;-59
2022/07/06 08:00:46;;;;;;;38.78;8.73;;;;;;;16.80;59.64;100951.66;5096738;28;20171;-59
2022/07/06 08:03:31;;;;;;;18.95;4.45;;;;;;;16.81;59.54;100950.78;5097234;28;20071;-59
2022/07/06 08:06:15;;;;;;;21.17;5.13;;;;;;;16.82;59.68;100949.88;5096907;28;20185;-59
2022/07/06 08:08:59;;;;;;;26.83;4.88;;;;;;;16.84;59.75;100955.16;5096739;28;20073;-59
2022/07/06 08:11:44;;;;;;;25.75;6.50;;;;;;;16.85;59.42;100954.28;5095228;28;20104;-59
2022/07/06 08:14:28;;;;;;;27.08;5.10;;;;;;;16.85;59.57;100949.91;5096144;28;20514;-59
2022/07/06 08:17:11;;;;;;;20.77;4.38;;;;;;;16.82;59.26;100954.25;5095873;28;20058;-59
2022/07/06 08:19:56;;;;;;;25.35;4.18;;;;;;;16.85;59.36;100954.28;5096198;28;20043;-59
2022/07/06 08:22:43;;;;;;;18.17;3.55;;;;;;;16.82;59.22;100954.25;5095669;28;20583;-59
2022/07/06 08:25:27;;;;;;;8.70;2.85;;;;;;;16.81;58.99;100957.75;5095763;28;20051;-59
2022/07/06 08:28:11;;;;;;;13.27;3.55;;;;;;;16.80;58.91;100951.66;5096290;28;20051;-59
2022/07/06 08:30:56;;;;;;;12.48;3.95;;;;;;;16.81;58.90;100949.88;5096631;28;20539;-59
2022/07/06 08:33:40;;;;;;;20.75;3.28;;;;;;;16.81;59.06;100945.53;5096109;28;20098;-59
2022/07/06 08:36:24;;;;;;;9.60;2.88;;;;;;;16.83;58.98;100949.03;5096267;28;20086;-59
2022/07/06 08:39:08;;;;;;;12.80;3.35;;;;;;;16.84;59.18;100953.38;5095850;28;20472;-59
2022/07/06 08:41:54;;;;;;;;;;;;;;;16.82;58.93;100951.66;5096734;28;20051;-58
2022/07/06 08:44:39;;;;;;;13.30;2.78;;;;;;;16.84;59.11;100955.16;5094598;28;19939;-59
2022/07/06 08:47:26;;;;;;;9.48;3.08;;;;;;;16.85;59.17;100946.44;5095880;28;20047;-59
2022/07/06 08:50:10;;;;;;;11.40;3.05;;;;;;;16.87;59.02;100948.19;5095238;28;20058;-59
2022/07/06 08:52:57;;;;;;;9.25;2.63;;;;;;;16.87;59.22;100950.78;5095852;28;20043;-59
2022/07/06 08:55:41;;;;;;;8.77;2.58;;;;;;;16.89;59.09;100953.44;5094758;28;20063;-60
2022/07/06 08:58:27;;;;;;;12.13;3.08;;;;;;;16.89;59.20;100956.06;5096266;28;20043;-59
2022/07/06 09:01:12;;;;;;;10.45;2.78;;;;;;;16.90;59.14;100950.81;5094665;28;20113;-59
2022/07/06 09:03:57;;;;;;;8.35;2.28;;;;;;;16.91;59.07;100946.44;5095180;28;20047;-59
2022/07/06 09:06:44;;;;;;;6.00;2.80;;;;;;;16.93;58.84;100954.31;5095720;28;20431;-59
2022/07/06 09:09:30;;;;;;;6.57;2.38;;;;;;;16.92;59.11;100945.56;5094908;28;20043;-59
2022/07/06 09:12:15;;;;;;;5.40;2.58;;;;;;;16.92;59.20;100953.44;5094521;28;20055;-59
2022/07/06 09:15:00;;;;;;;4.65;1.83;;;;;;;16.93;59.25;100947.31;5095445;28;20096;-59
2022/07/06 09:17:44;;;;;;;9.32;2.60;;;;;;;16.93;59.10;100943.84;5095350;28;20493;-59
2022/07/06 09:20:27;;;;;;;5.05;1.83;;;;;;;16.92;58.98;100942.94;5095482;28;20396;-58
2022/07/06 09:23:16;;;;;;;3.85;2.20;;;;;;;16.93;58.80;100942.09;5094450;28;20477;-58
2022/07/06 09:26:06;;;;;;;6.28;2.40;;;;;;;16.94;58.97;100951.69;5094489;28;20051;-59
2022/07/06 09:28:51;;;;;;;5.40;2.22;;;;;;;16.96;59.10;100949.13;5095323;28;20411;-59
2022/07/06 09:31:34;;;;;;;;;;;;;;;16.92;58.84;100942.94;5095127;28;20043;-59
2022/07/06 09:34:18;;;;;;;6.28;2.08;;;;;;;16.90;58.78;100948.19;5095118;28;20429;-59
2022/07/06 09:37:02;;;;;;;4.85;1.95;;;;;;;16.92;58.83;100945.56;5094861;28;20086;-59
2022/07/06 09:39:47;;;;;;;4.00;1.63;;;;;;;16.94;58.81;100942.97;5093792;28;20070;-59
2022/07/06 09:42:34;;;;;;;8.43;2.22;;;;;;;16.95;58.75;100942.16;5095190;28;20105;-59
2022/07/06 09:45:22;;;;;;;3.20;1.67;;;;;;;16.97;58.80;100945.66;5094242;28;20113;-59
2022/07/06 09:48:08;;;;;;;10.73;2.20;;;;;;;16.97;58.56;100951.75;5094913;28;20050;-59
2022/07/06 09:51:02;;;;;;;7.05;2.10;;;;;;;16.98;58.75;100948.25;5093771;28;20047;-59
2022/07/06 09:53:51;;;;;;;3.92;1.80;;;;;;;16.99;58.85;100942.16;5093711;28;20514;-59
2022/07/06 09:56:37;;;;;;;4.75;2.00;;;;;;;16.99;58.91;100941.25;5092675;28;20043;-59
2022/07/06 09:59:26;;;;;;;4.82;1.90;;;;;;;17.00;58.82;100940.41;5093696;28;20097;-58
2022/07/06 10:02:13;;;;;;;3.17;1.88;;;;;;;17.02;58.56;100944.78;5094487;28;20039;-57
2022/07/06 10:04:57;;;;;;;5.38;2.25;;;;;;;17.02;58.66;100944.78;5094342;28;20047;-57
2022/07/06 10:07:42;;;;;;;4.55;2.13;;;;;;;17.02;58.46;100936.94;5093536;28;20086;-58
2022/07/06 10:10:28;;;;;;;2.55;1.80;;;;;;;17.03;58.72;100937.78;5094202;28;20055;-57
2022/07/06 10:13:19;;;;;;;3.47;1.77;;;;;;;17.05;58.50;100946.53;5094272;28;20047;-57
2022/07/06 10:16:04;;;;;;;2.63;1.77;;;;;;;17.05;58.56;100941.31;5093787;28;20505;-57
2022/07/06 10:18:50;;;;;;;2.63;1.70;;;;;;;17.06;58.43;100940.44;5093886;28;20073;-57
2022/07/06 10:21:39;;;;;;;4.63;1.67;;;;;;;17.06;58.38;100943.06;5093270;28;20047;-57
2022/07/06 10:24:24;;;;;;;4.72;1.52;;;;;;;17.06;58.79;100940.44;5093159;28;20058;-57
2022/07/06 10:27:10;;;;;;;3.97;1.77;;;;;;;17.04;58.87;100943.06;5093121;28;20097;-58
2022/07/06 10:29:53;;;;;;;3.88;1.65;;;;;;;17.03;58.39;100941.31;5093367;28;20071;-57
2022/07/06 10:32:40;;;;;;;5.63;1.98;;;;;;;17.04;58.34;100950.91;5092826;28;20046;-58
2022/07/06 10:35:24;;;;;;;6.07;1.80;;;;;;;17.07;58.50;100938.66;5093280;28;20398;-57
2022/07/06 10:38:09;;;;;;;3.28;2.13;;;;;;;17.06;58.57;100945.66;5093987;28;20459;-60
2022/07/06 10:41:05;;;;;;;4.55;1.73;;;;;;;17.06;58.50;100945.66;5092766;28;20104;-59
2022/07/06 10:43:49;;;;;;;2.75;1.75;;;;;;;17.05;58.80;100947.41;5092912;28;20051;-58
2022/07/06 10:46:33;;;;;;;;;;;;;;;17.04;58.43;100943.06;5094546;28;20090;-59
2022/07/06 10:49:18;;;;;;;3.05;1.60;;;;;;;17.04;58.60;100945.69;5093798;28;19918;-58
2022/07/06 10:52:02;;;;;;;5.13;1.90;;;;;;;17.04;58.66;100947.41;5093576;28;20062;-59
2022/07/06 10:54:46;;;;;;;4.53;1.88;;;;;;;17.05;58.54;100949.16;5093533;28;20097;-59
2022/07/06 10:57:53;;;;;;;4.43;1.90;;;;;;;17.06;58.46;100950.91;5093050;28;20046;-58
2022/07/06 11:00:50;;;;;;;3.72;2.13;;;;;;;17.06;58.57;100948.28;5092714;28;20114;-59
2022/07/06 11:03:36;;;;;;;7.25;2.28;;;;;;;17.08;58.34;100948.28;5092729;28;20579;-59
2022/07/06 11:06:22;;;;;;;2.75;1.92;;;;;;;17.08;58.46;100943.94;5093377;28;20063;-59
2022/07/06 11:09:10;;;;;;;4.40;2.20;;;;;;;17.09;58.53;100942.19;5092624;28;20135;-58
2022/07/06 11:11:56;;;;;;;3.75;2.20;;;;;;;17.10;58.43;100946.53;5091972;28;20205;-59
2022/07/06 11:14:40;;;;;;;4.45;2.17;;;;;;;17.11;58.70;100943.94;5093655;28;20044;-59
2022/07/06 11:17:24;;;;;;;5.60;2.20;;;;;;;17.11;58.53;100943.94;5093504;28;20115;-59
2022/07/06 11:20:10;;;;;;;1.85;1.50;;;;;;;17.11;58.55;100943.06;5093579;28;20047;-59
2022/07/06 11:22:55;;;;;;;6.20;2.83;;;;;;;17.11;58.52;100946.56;5092439;28;20051;-59
2022/07/06 11:25:39;;;;;;;3.03;2.10;;;;;;;17.11;58.31;100943.06;5093458;28;20046;-58
2022/07/06 11:28:26;;;;;;;2.85;1.90;;;;;;;17.11;58.34;100937.81;5093434;28;20108;-59
2022/07/06 11:31:10;;;;;;;3.33;2.20;;;;;;;17.11;58.48;100937.81;5093329;28;20044;-59
2022/07/06 11:34:58;;;;;;;5.15;2.42;;;;;;;17.12;58.38;100936.94;5111650;27;20842;-57
2022/07/06 11:37:42;;;;;;;5.80;2.35;;;;;;;17.13;58.32;100939.56;5111701;28;20046;-57
2022/07/06 11:40:26;;;;;;;4.70;2.10;;;;;;;17.12;58.50;100934.34;5111482;28;20058;-58
2022/07/06 11:43:10;;;;;;;4.32;2.30;;;;;;;17.12;58.37;100930.00;5111491;28;20062;-58
2022/07/06 11:45:54;;;;;;;3.53;1.80;;;;;;;17.12;57.96;100932.59;5110931;28;20081;-58
2022/07/06 11:48:45;;;;;;;3.88;1.75;;;;;;;17.12;58.24;100936.94;5110521;28;20164;-58
2022/07/06 11:51:33;;;;;;;4.15;2.40;;;;;;;17.12;58.46;100936.94;5110178;28;20047;-58
2022/07/06 11:54:19;;;;;;;4.10;2.20;;;;;;;17.14;58.28;100932.59;5110143;28;20089;-58
2022/07/06 11:57:03;;;;;;;5.22;2.30;;;;;;;17.15;58.31;100929.13;5110029;28;20080;-58
2022/07/06 11:59:51;;;;;;;6.22;2.25;;;;;;;17.17;58.27;100927.38;5110987;28;20042;-58
2022/07/06 12:02:35;;;;;;;2.10;1.75;;;;;;;17.19;58.39;100925.63;5110692;28;20191;-58
2022/07/06 12:05:30;;;;;;;7.38;2.40;;;;;;;17.18;58.30;100923.88;5109399;28;20558;-57
2022/07/06 12:08:14;;;;;;;4.57;2.00;;;;;;;17.18;58.29;100921.28;5110744;28;20089;-57
2022/07/06 12:10:58;;;;;;;3.47;2.20;;;;;;;17.21;58.32;100923.88;5110305;28;20042;-57
2022/07/06 12:13:43;;;;;;;3.03;2.17;;;;;;;17.19;58.32;100920.41;5110590;28;20063;-58
2022/07/06 12:16:34;;;;;;;4.68;2.10;;;;;;;17.20;58.10;100924.78;5110644;28;20411;-58
2022/07/06 12:19:21;;;;;;;3.58;2.20;;;;;;;17.20;58.13;100922.16;5109780;28;20435;-59
2022/07/06 12:22:06;;;;;;;6.05;2.45;;;;;;;17.21;58.06;100921.25;5109852;28;20514;-57
2022/07/06 12:24:52;;;;;;;3.80;2.05;;;;;;;17.20;58.38;100915.16;5109004;28;20046;-58
2022/07/06 12:27:37;;;;;;;5.65;2.15;;;;;;;17.21;58.40;100916.00;5110126;28;20090;-57
2022/07/06 12:30:21;;;;;;;3.58;2.42;;;;;;;17.22;58.56;100904.66;5110147;28;20537;-57
2022/07/06 12:33:15;;;;;;;3.80;2.42;;;;;;;17.22;58.16;100901.19;5110088;28;20059;-58
2022/07/06 12:36:15;;;;;;;7.05;2.50;;;;;;;17.23;58.24;100897.69;5109299;28;20042;-59
2022/07/06 12:38:59;;;;;;;3.22;2.05;;;;;;;17.22;58.20;100893.34;5109783;28;20136;-57
2022/07/06 12:41:56;;;;;;;4.78;2.63;;;;;;;17.22;58.08;100888.94;5109928;28;20047;-58
2022/07/06 12:44:46;;;;;;;5.80;2.63;;;;;;;17.24;58.29;100894.22;5105933;28;20437;-58
2022/07/06 12:47:30;;;;;;;4.80;2.80;;;;;;;17.24;58.21;100878.50;5095372;28;20047;-57
2022/07/06 12:50:14;;;;;;;3.97;2.20;;;;;;;17.24;58.15;100878.50;5095947;28;20414;-57
2022/07/06 12:52:58;;;;;;;4.22;2.78;;;;;;;17.24;58.14;100874.13;5096398;28;20089;-57
2022/07/06 12:55:43;;;;;;;4.40;2.30;;;;;;;17.26;58.40;100879.38;5096229;28;20105;-57
2022/07/06 12:58:26;;;;;;;5.03;2.47;;;;;;;17.26;58.29;100874.13;5096006;28;20430;-58